Estación de San Nicolás

Ultimos registro cada 15 minutos 68
Estación Fecha / Hora Temperatura Humedad Lluvia Velocidad Dirección Radiación Presion
68 San Nicolás 02-05-2026 17:00 18,7 49 0 0 255 26 1014,5
67 San Nicolás 02-05-2026 16:45 18,9 49 0 0 288 40 1014,4
66 San Nicolás 02-05-2026 16:30 19 47 0 0,4 292 30 1014,5
65 San Nicolás 02-05-2026 16:00 19,1 48 0 0,9 271 65 1014,3
64 San Nicolás 02-05-2026 15:45 18,9 48 0 1,8 276 258 1014,3
63 San Nicolás 02-05-2026 15:30 18,8 48 0 1,3 259 200 1014,5
62 San Nicolás 02-05-2026 15:15 18,9 48 0 1,3 259 390 1014,5
61 San Nicolás 02-05-2026 15:00 18,6 48 0 2,2 276 260 1014,6
60 San Nicolás 02-05-2026 14:45 18,3 50 0 1,8 192 487 1014,6
59 San Nicolás 02-05-2026 14:30 17,9 50 0 0,4 302 417 1014,8
58 San Nicolás 02-05-2026 14:15 17,6 52 0 1,3 247 431 1014,8
57 San Nicolás 02-05-2026 14:00 17,1 53 0 2,2 284 568 1015,1
56 San Nicolás 02-05-2026 13:45 16,7 53 0 1,8 270 455 1015,3
55 San Nicolás 02-05-2026 13:30 16,2 56 0 1,3 239 603 1015,3
54 San Nicolás 02-05-2026 13:15 15,7 58 0 1,3 271 615 1015,6
53 San Nicolás 02-05-2026 13:00 15,1 59 0 1,8 280 622 1015,8
52 San Nicolás 02-05-2026 12:45 14,4 61 0 0,9 235 628 1016,1
51 San Nicolás 02-05-2026 12:30 13,6 63 0 1,8 248 628 1016,4
50 San Nicolás 02-05-2026 12:15 13,1 65 0 0,9 221 628 1016,9
49 San Nicolás 02-05-2026 12:00 12,4 67 0 1,8 224 615 1017,1
48 San Nicolás 02-05-2026 11:45 11,8 68 0 1,8 253 608 1017,3
47 San Nicolás 02-05-2026 11:30 11,2 70 0 1,3 266 589 1017,6
46 San Nicolás 02-05-2026 11:15 10,7 73 0 0,9 249 573 1017,6
45 San Nicolás 02-05-2026 11:00 9,9 73 0 2,2 238 550 1017,8
44 San Nicolás 02-05-2026 10:45 9,3 75 0 1,3 236 524 1018,1
43 San Nicolás 02-05-2026 10:30 8,7 78 0 2,7 293 497 1018,2
42 San Nicolás 02-05-2026 10:15 8,1 80 0 0,9 299 462 1018,6
41 San Nicolás 02-05-2026 10:00 7,4 80 0 1,8 246 431 1018,7
40 San Nicolás 02-05-2026 09:45 6,9 83 0 1,8 278 390 1018,7
39 San Nicolás 02-05-2026 09:30 6,2 86 0 1,3 220 348 1018,8
38 San Nicolás 02-05-2026 09:15 5,6 88 0 1,3 255 304 1018,8
37 San Nicolás 02-05-2026 09:00 5 90 0 0,9 228 251 1019
36 San Nicolás 02-05-2026 08:45 4,5 93 0 0,9 226 207 1018,9
35 San Nicolás 02-05-2026 08:30 4,1 93 0 0 281 156 1019
34 San Nicolás 02-05-2026 08:15 3,6 93 0 0 279 113 1018,6
33 San Nicolás 02-05-2026 08:00 2,9 93 0 0 280 69 1018,2
32 San Nicolás 02-05-2026 07:45 2,5 92 0 0 280 30 1018,2
31 San Nicolás 02-05-2026 07:30 2,2 92 0 0 280 11 1017,9
30 San Nicolás 02-05-2026 07:15 2,3 91 0 0 280 0 1018,1
29 San Nicolás 02-05-2026 07:00 2,6 90 0 0 280 0 1018,2
28 San Nicolás 02-05-2026 06:45 3 91 0 0 280 0 1018,3
27 San Nicolás 02-05-2026 06:30 3,3 91 0 0 280 0 1018,1
26 San Nicolás 02-05-2026 06:15 3,5 91 0 1,3 282 0 1018
25 San Nicolás 02-05-2026 06:00 3,7 90 0 0,9 282 0 1018,4
24 San Nicolás 02-05-2026 05:45 4,1 90 0 0,9 280 0 1018,5
23 San Nicolás 02-05-2026 05:30 4,3 91 0 0,9 257 0 1018,6
22 San Nicolás 02-05-2026 05:15 4,2 91 0 1,3 259 0 1018,6
21 San Nicolás 02-05-2026 05:00 4,1 91 0 0,4 281 0 1018,7
20 San Nicolás 02-05-2026 04:45 4 91 0 0,4 275 0 1018,7
19 San Nicolás 02-05-2026 04:30 4 90 0 1,8 283 0 1019
18 San Nicolás 02-05-2026 04:15 4,2 90 0 0 263 0 1019,1
17 San Nicolás 02-05-2026 04:00 4,6 90 0 0 263 0 1019,4
16 San Nicolás 02-05-2026 03:45 4,8 90 0 0,9 263 0 1019,4
15 San Nicolás 02-05-2026 03:30 4,9 90 0 0,4 240 0 1019,4
14 San Nicolás 02-05-2026 03:15 5,1 90 0 1,3 276 0 1019,6
13 San Nicolás 02-05-2026 03:00 5,2 90 0 0 279 0 1019,9
12 San Nicolás 02-05-2026 02:45 5,3 90 0 0 279 0 1020
11 San Nicolás 02-05-2026 02:30 5,2 90 0 0 275 0 1020,2
10 San Nicolás 02-05-2026 02:15 5,3 90 0 0,4 275 0 1020,4
9 San Nicolás 02-05-2026 02:00 5,4 89 0 0 253 0 1020,4
8 San Nicolás 02-05-2026 01:45 5,5 89 0 0 252 0 1020,5
7 San Nicolás 02-05-2026 01:30 5,7 88 0 0,4 252 0 1020,6
6 San Nicolás 02-05-2026 01:15 6,1 87 0 0 252 0 1020,7
5 San Nicolás 02-05-2026 01:00 6,3 87 0 0,9 251 0 1020,8
4 San Nicolás 02-05-2026 00:45 6,6 87 0 0 252 0 1021,1
3 San Nicolás 02-05-2026 00:30 6,6 87 0 0,4 268 0 1021,2
2 San Nicolás 02-05-2026 00:15 6,8 86 0 0 277 0 1021,4
1 San Nicolás 02-05-2026 00:00 7,2 86 0 1,8 275 0 1021,6